createdAt,value
2022-09-28T00:00:49.096Z,77.88
2022-09-28T00:01:53.672Z,78.43
2022-09-28T00:02:58.326Z,78.54
2022-09-28T00:03:59.990Z,78.05
2022-09-28T00:05:02.408Z,78.30
2022-09-28T00:06:07.241Z,78.35
2022-09-28T00:07:08.768Z,77.89
2022-09-28T00:08:10.167Z,77.28
2022-09-28T00:09:11.642Z,76.91
2022-09-28T00:10:13.125Z,77.02
2022-09-28T00:11:15.724Z,76.63
2022-09-28T00:12:17.137Z,77.87
2022-09-28T00:13:18.633Z,78.14
2022-09-28T00:14:21.168Z,78.17
2022-09-28T00:15:24.423Z,78.93
2022-09-28T00:16:28.912Z,78.52
2022-09-28T00:17:30.408Z,78.04
2022-09-28T00:18:32.295Z,76.92
2022-09-28T00:19:34.240Z,77.01
2022-09-28T00:20:35.652Z,77.04
2022-09-28T00:21:39.097Z,77.22
2022-09-28T00:22:40.543Z,77.28
2022-09-28T00:24:01.201Z,76.88
2022-09-28T00:25:02.710Z,76.93
2022-09-28T00:26:05.653Z,77.82
2022-09-28T00:27:07.464Z,78.47
2022-09-28T00:28:08.951Z,78.81
2022-09-28T00:29:16.609Z,78.49
2022-09-28T00:30:18.276Z,78.25
2022-09-28T00:31:20.349Z,78.79
2022-09-28T00:32:24.596Z,78.19
2022-09-28T00:33:26.013Z,78.57
2022-09-28T00:34:31.264Z,77.80
2022-09-28T00:35:32.706Z,77.28
2022-09-28T00:36:35.250Z,77.07
2022-09-28T00:37:36.660Z,78.36
2022-09-28T00:38:40.588Z,78.66
2022-09-28T00:39:42.303Z,78.34
2022-09-28T00:40:43.803Z,78.07
2022-09-28T00:41:46.425Z,78.94
2022-09-28T00:42:47.854Z,77.72
2022-09-28T00:43:49.398Z,78.52
2022-09-28T00:44:57.733Z,78.78
2022-09-28T00:46:04.016Z,78.61
2022-09-28T00:47:34.680Z,79.00
2022-09-28T00:48:39.964Z,79.12
2022-09-28T00:50:11.972Z,78.80
2022-09-28T00:51:13.957Z,78.70
2022-09-28T00:52:23.056Z,78.20
2022-09-28T00:53:26.545Z,78.63
2022-09-28T00:54:28.433Z,78.77
2022-09-28T00:55:41.135Z,78.97
2022-09-28T00:56:46.569Z,78.57
2022-09-28T00:57:53.131Z,77.78
2022-09-28T00:58:55.089Z,78.33
2022-09-28T00:59:56.964Z,78.56
2022-09-28T01:00:59.927Z,78.42
2022-09-28T01:02:01.846Z,77.98
2022-09-28T01:03:03.997Z,77.45
2022-09-28T01:04:06.384Z,77.33
2022-09-28T01:05:10.366Z,77.65
2022-09-28T01:06:18.558Z,77.93
2022-09-28T01:07:21.504Z,77.51
2022-09-28T01:08:25.008Z,77.05
2022-09-28T01:09:27.658Z,77.34
2022-09-28T01:10:31.105Z,77.15
2022-09-28T01:11:34.244Z,78.29
2022-09-28T01:12:35.853Z,77.79
2022-09-28T01:13:38.169Z,78.33
2022-09-28T01:14:41.191Z,78.16
2022-09-28T01:15:51.915Z,78.39
2022-09-28T01:17:02.741Z,78.75
2022-09-28T01:18:30.028Z,78.13
2022-09-28T01:19:56.485Z,78.08
2022-09-28T01:21:11.086Z,78.99
2022-09-28T01:22:31.783Z,79.20
2022-09-28T01:23:47.807Z,78.73
2022-09-28T01:25:06.706Z,80.63
2022-09-28T01:26:39.445Z,80.67
2022-09-28T01:28:18.249Z,78.83
2022-09-28T01:29:30.450Z,79.17
2022-09-28T01:30:56.751Z,78.96
2022-09-28T01:32:09.395Z,78.87
2022-09-28T01:33:16.274Z,78.95
2022-09-28T01:34:25.428Z,78.94
2022-09-28T01:35:31.102Z,79.46
2022-09-28T01:36:46.707Z,78.29
2022-09-28T01:38:10.492Z,77.85
2022-09-28T01:39:23.952Z,78.05
2022-09-28T01:40:28.899Z,78.34
2022-09-28T01:41:36.552Z,77.59
2022-09-28T01:42:40.258Z,77.12
2022-09-28T01:43:47.599Z,77.97
2022-09-28T01:44:52.538Z,78.17
2022-09-28T01:46:12.366Z,79.12
2022-09-28T01:47:20.145Z,79.58
2022-09-28T01:48:35.292Z,80.58
2022-09-28T01:49:47.151Z,79.62
2022-09-28T01:50:53.560Z,80.55
2022-09-28T01:52:03.620Z,80.61
2022-09-28T01:53:35.079Z,81.40
2022-09-28T01:54:41.860Z,81.26
2022-09-28T01:55:47.983Z,81.63
2022-09-28T01:56:55.911Z,81.92
2022-09-28T01:58:07.582Z,81.13
2022-09-28T01:59:41.857Z,80.64
2022-09-28T02:00:49.226Z,81.79
2022-09-28T02:02:10.165Z,80.55
2022-09-28T02:03:16.935Z,80.90
2022-09-28T02:04:22.868Z,80.07
2022-09-28T02:05:36.731Z,80.25
2022-09-28T02:06:48.038Z,81.33
2022-09-28T02:08:07.307Z,81.97
2022-09-28T02:09:13.929Z,82.20
2022-09-28T02:10:21.838Z,81.15
2022-09-28T02:11:23.817Z,80.95
2022-09-28T02:12:33.816Z,81.43
2022-09-28T02:13:44.248Z,83.03
2022-09-28T02:14:49.377Z,83.57
2022-09-28T02:15:58.556Z,83.48
2022-09-28T02:17:00.141Z,83.75
2022-09-28T02:18:01.893Z,84.05
2022-09-28T02:19:04.580Z,83.82
2022-09-28T02:20:07.477Z,83.39
2022-09-28T02:21:26.356Z,83.31
2022-09-28T02:22:44.132Z,82.81
2022-09-28T02:23:57.250Z,83.75
2022-09-28T02:25:06.135Z,84.58
2022-09-28T02:26:11.958Z,83.59
2022-09-28T02:27:18.640Z,83.24
2022-09-28T02:28:20.123Z,82.80
2022-09-28T02:29:21.539Z,81.38
2022-09-28T02:30:23.012Z,82.30
2022-09-28T02:31:24.603Z,82.53
2022-09-28T02:32:29.976Z,82.23
2022-09-28T02:33:36.573Z,82.26
2022-09-28T02:34:38.089Z,80.88
2022-09-28T02:35:41.429Z,82.26
2022-09-28T02:36:44.990Z,83.21
2022-09-28T02:37:47.354Z,84.00
2022-09-28T02:38:48.808Z,83.90
2022-09-28T02:39:50.365Z,82.95
2022-09-28T02:41:05.356Z,82.28
2022-09-28T02:42:24.392Z,82.40
2022-09-28T02:43:56.987Z,82.79
2022-09-28T02:45:11.739Z,82.69
2022-09-28T02:46:28.606Z,82.71
2022-09-28T02:47:33.217Z,82.91
2022-09-28T02:48:55.772Z,84.07
2022-09-28T02:50:20.672Z,84.27
2022-09-28T02:51:42.810Z,83.96
2022-09-28T02:53:09.542Z,84.22
2022-09-28T02:54:41.253Z,83.29
2022-09-28T02:56:11.976Z,82.79
2022-09-28T02:57:45.591Z,82.75
2022-09-28T02:58:47.907Z,82.83
2022-09-28T03:00:10.324Z,82.11
2022-09-28T03:01:44.195Z,82.37
2022-09-28T03:03:04.241Z,82.52
2022-09-28T03:04:18.715Z,81.93
2022-09-28T03:05:30.011Z,81.48
2022-09-28T03:06:45.683Z,81.04
2022-09-28T03:07:49.702Z,80.92
2022-09-28T03:09:07.065Z,80.52
2022-09-28T03:10:32.748Z,80.39
2022-09-28T03:11:39.129Z,80.30
2022-09-28T03:12:43.489Z,80.38
2022-09-28T03:13:45.251Z,80.20
2022-09-28T03:14:46.856Z,80.69
2022-09-28T03:15:53.309Z,80.60
2022-09-28T03:16:54.730Z,80.81
2022-09-28T03:17:57.834Z,80.96
2022-09-28T03:18:59.262Z,81.29
2022-09-28T03:20:00.893Z,81.54
2022-09-28T03:21:04.282Z,81.58
2022-09-28T03:22:06.057Z,82.18
2022-09-28T03:23:23.979Z,81.97
2022-09-28T03:24:26.407Z,81.00
2022-09-28T03:25:28.052Z,81.51
2022-09-28T03:26:29.456Z,81.29
2022-09-28T03:27:31.035Z,81.83
2022-09-28T03:28:36.243Z,81.35
2022-09-28T03:29:38.597Z,80.96
2022-09-28T03:30:40.038Z,81.25
2022-09-28T03:31:41.501Z,80.73
2022-09-28T03:32:42.975Z,81.24
2022-09-28T03:33:44.476Z,80.99
2022-09-28T03:34:45.903Z,81.20
2022-09-28T03:35:49.069Z,81.52
2022-09-28T03:36:50.491Z,81.80
2022-09-28T03:37:56.543Z,82.36
2022-09-28T03:38:59.547Z,82.37
2022-09-28T03:40:01.181Z,82.25
2022-09-28T03:41:02.697Z,83.02
2022-09-28T03:42:04.600Z,82.83
2022-09-28T03:43:05.983Z,82.66
2022-09-28T03:44:07.417Z,83.12
2022-09-28T03:45:09.262Z,83.79
2022-09-28T03:46:10.763Z,83.69
2022-09-28T03:47:12.858Z,83.92
2022-09-28T03:48:14.256Z,83.36
2022-09-28T03:49:15.789Z,83.57
2022-09-28T03:50:17.303Z,84.06
2022-09-28T03:51:18.714Z,83.96
2022-09-28T03:52:20.508Z,84.77
2022-09-28T03:53:22.684Z,85.80
2022-09-28T03:54:24.123Z,85.71
2022-09-28T03:55:25.612Z,85.26
2022-09-28T03:56:27.039Z,85.22
2022-09-28T03:57:28.807Z,85.19
2022-09-28T03:58:30.318Z,84.28
2022-09-28T03:59:31.813Z,83.18
2022-09-28T04:00:33.218Z,82.66
2022-09-28T04:01:34.765Z,83.05
2022-09-28T04:02:36.332Z,82.75
2022-09-28T04:03:37.941Z,84.27
2022-09-28T04:04:39.441Z,84.06
2022-09-28T04:05:50.079Z,83.84
2022-09-28T04:06:51.817Z,84.16
2022-09-28T04:07:56.134Z,84.42
2022-09-28T04:08:57.652Z,84.12
2022-09-28T04:09:59.102Z,85.56
2022-09-28T04:11:01.676Z,85.61
2022-09-28T04:12:04.602Z,85.20
2022-09-28T04:13:06.100Z,85.60
2022-09-28T04:14:07.512Z,84.55
2022-09-28T04:15:09.350Z,85.80
2022-09-28T04:16:11.748Z,85.43
2022-09-28T04:17:13.565Z,86.39
2022-09-28T04:18:14.988Z,86.16
2022-09-28T04:19:16.600Z,86.27
2022-09-28T04:20:18.363Z,86.63
2022-09-28T04:21:20.918Z,86.46
2022-09-28T04:22:23.339Z,85.84
2022-09-28T04:23:25.077Z,84.96
2022-09-28T04:24:26.619Z,85.32
2022-09-28T04:25:28.123Z,85.32
2022-09-28T04:26:29.576Z,84.47
2022-09-28T04:27:50.080Z,84.19
2022-09-28T04:29:10.227Z,83.95
2022-09-28T04:30:11.802Z,85.28
2022-09-28T04:31:16.766Z,86.46
2022-09-28T04:32:18.603Z,86.21
2022-09-28T04:33:20.000Z,85.97
2022-09-28T04:34:22.810Z,86.42
2022-09-28T04:35:26.860Z,86.67
2022-09-28T04:36:28.263Z,86.45
2022-09-28T04:37:31.555Z,85.35
2022-09-28T04:38:51.719Z,85.23
2022-09-28T04:39:54.114Z,86.22
2022-09-28T04:40:55.574Z,86.84
2022-09-28T04:41:57.185Z,87.98
2022-09-28T04:42:58.956Z,87.43
2022-09-28T04:44:00.447Z,87.95
2022-09-28T04:45:02.261Z,87.25
2022-09-28T04:46:06.226Z,86.71
2022-09-28T04:47:08.054Z,87.08
2022-09-28T04:48:09.481Z,87.97
2022-09-28T04:49:11.287Z,87.04
2022-09-28T04:50:12.814Z,87.24
2022-09-28T04:51:14.496Z,86.11
2022-09-28T04:52:18.461Z,86.46
2022-09-28T04:53:20.346Z,87.33
2022-09-28T04:54:21.852Z,86.42
2022-09-28T04:55:23.544Z,86.74
2022-09-28T04:56:24.968Z,87.04
2022-09-28T04:57:26.975Z,87.38
2022-09-28T04:58:29.361Z,87.32
2022-09-28T04:59:30.788Z,87.84
2022-09-28T05:00:35.893Z,86.84
2022-09-28T05:01:37.781Z,86.84
2022-09-28T05:02:39.342Z,87.78
2022-09-28T05:03:41.060Z,87.54
2022-09-28T05:04:42.602Z,87.72
2022-09-28T05:05:48.940Z,87.77
2022-09-28T05:06:50.432Z,87.83
2022-09-28T05:07:52.195Z,87.79
2022-09-28T05:08:53.962Z,87.55
2022-09-28T05:09:55.897Z,87.52
2022-09-28T05:10:59.771Z,87.20
2022-09-28T05:12:01.427Z,86.04
2022-09-28T05:13:03.282Z,85.05
2022-09-28T05:14:05.774Z,86.14
2022-09-28T05:15:07.580Z,85.59
2022-09-28T05:16:10.022Z,85.94
2022-09-28T05:17:11.515Z,85.76
2022-09-28T05:18:14.148Z,85.65
2022-09-28T05:19:15.844Z,84.74
2022-09-28T05:20:17.316Z,85.78
2022-09-28T05:21:20.270Z,86.01
2022-09-28T05:22:21.947Z,85.54
2022-09-28T05:23:23.359Z,85.62
2022-09-28T05:24:24.789Z,84.61
2022-09-28T05:25:26.464Z,84.89
2022-09-28T05:26:27.879Z,84.66
2022-09-28T05:27:29.708Z,85.17
2022-09-28T05:28:33.299Z,84.99
2022-09-28T05:29:34.765Z,85.04
2022-09-28T05:30:36.628Z,85.26
2022-09-28T05:31:38.095Z,85.98
2022-09-28T05:32:47.352Z,86.29
2022-09-28T05:33:49.187Z,85.61
2022-09-28T05:34:50.670Z,85.75
2022-09-28T05:35:55.153Z,85.24
2022-09-28T05:36:58.788Z,85.02
2022-09-28T05:38:05.395Z,85.70
2022-09-28T05:39:06.838Z,85.57
2022-09-28T05:40:09.104Z,85.71
2022-09-28T05:41:10.532Z,85.27
2022-09-28T05:42:12.084Z,84.65
2022-09-28T05:43:13.535Z,84.63
2022-09-28T05:44:15.161Z,84.87
2022-09-28T05:45:16.814Z,84.69
2022-09-28T05:46:18.585Z,84.44
2022-09-28T05:47:20.187Z,83.85
2022-09-28T05:48:21.645Z,83.88
2022-09-28T05:49:23.122Z,84.61
2022-09-28T05:50:24.815Z,84.87
2022-09-28T05:51:26.494Z,86.52
2022-09-28T05:52:28.320Z,87.01
2022-09-28T05:53:29.862Z,86.10
2022-09-28T05:54:31.347Z,85.83
2022-09-28T05:55:33.234Z,86.03
2022-09-28T05:56:34.845Z,85.56
2022-09-28T05:57:37.115Z,85.55
2022-09-28T05:58:38.579Z,85.63
2022-09-28T05:59:40.299Z,86.74
2022-09-28T06:00:42.682Z,87.18
2022-09-28T06:01:44.587Z,87.59
2022-09-28T06:02:56.076Z,87.16
2022-09-28T06:03:57.472Z,86.79
2022-09-28T06:04:58.886Z,86.71
2022-09-28T06:06:02.140Z,85.49
2022-09-28T06:07:03.891Z,85.19
2022-09-28T06:08:08.246Z,85.15
2022-09-28T06:09:09.966Z,85.40
2022-09-28T06:10:11.394Z,86.01
2022-09-28T06:11:12.841Z,86.13
2022-09-28T06:12:16.242Z,86.31
2022-09-28T06:13:17.623Z,85.69
2022-09-28T06:14:19.065Z,85.79
2022-09-28T06:15:21.603Z,85.95
2022-09-28T06:16:23.701Z,85.91
2022-09-28T06:17:25.673Z,86.34
2022-09-28T06:18:27.092Z,86.24
2022-09-28T06:19:28.536Z,86.27
2022-09-28T06:20:32.551Z,85.92
2022-09-28T06:21:34.404Z,85.92
2022-09-28T06:22:35.796Z,85.64
2022-09-28T06:23:37.222Z,85.31
2022-09-28T06:24:38.672Z,85.32
2022-09-28T06:25:40.778Z,85.05
2022-09-28T06:26:42.568Z,85.28
2022-09-28T06:27:44.016Z,84.47
2022-09-28T06:28:45.475Z,84.65
2022-09-28T06:29:46.861Z,84.96
2022-09-28T06:30:48.392Z,85.21
2022-09-28T06:31:50.186Z,85.23
2022-09-28T06:32:59.671Z,84.25
2022-09-28T06:34:01.755Z,84.47
2022-09-28T06:35:03.323Z,84.55
2022-09-28T06:36:04.971Z,84.37
2022-09-28T06:37:06.710Z,84.52
2022-09-28T06:38:08.512Z,83.81
2022-09-28T06:39:09.891Z,83.79
2022-09-28T06:40:11.306Z,84.13
2022-09-28T06:41:13.340Z,84.70
2022-09-28T06:42:17.069Z,84.66
2022-09-28T06:43:18.984Z,85.22
2022-09-28T06:44:20.438Z,85.68
2022-09-28T06:45:25.249Z,85.80
2022-09-28T06:46:27.530Z,84.80
2022-09-28T06:47:28.959Z,85.01
2022-09-28T06:48:33.423Z,85.04
2022-09-28T06:49:34.948Z,85.17
2022-09-28T06:50:39.711Z,84.95
2022-09-28T06:51:41.125Z,84.64
2022-09-28T06:52:42.546Z,84.81
2022-09-28T06:53:43.942Z,84.33
2022-09-28T06:54:45.378Z,84.07
2022-09-28T06:55:50.531Z,84.14
2022-09-28T06:56:53.632Z,84.75
2022-09-28T06:58:06.408Z,83.85
2022-09-28T06:59:07.806Z,83.95
2022-09-28T07:00:10.496Z,84.68
2022-09-28T07:01:12.459Z,84.23
2022-09-28T07:02:14.524Z,83.75
2022-09-28T07:03:19.910Z,83.58
2022-09-28T07:04:21.366Z,83.12
2022-09-28T07:05:26.717Z,83.69
2022-09-28T07:06:29.155Z,84.15
2022-09-28T07:07:31.338Z,84.59
2022-09-28T07:08:32.865Z,83.54
2022-09-28T07:09:37.276Z,83.76
2022-09-28T07:10:45.055Z,83.56
2022-09-28T07:11:46.617Z,84.43
2022-09-28T07:12:47.999Z,83.44
2022-09-28T07:13:51.139Z,84.05
2022-09-28T07:14:57.211Z,83.92
2022-09-28T07:16:02.625Z,83.46
2022-09-28T07:17:13.839Z,82.82
2022-09-28T07:18:16.055Z,82.83
2022-09-28T07:19:17.501Z,83.50
2022-09-28T07:20:19.726Z,84.36
2022-09-28T07:21:29.780Z,84.59
2022-09-28T07:22:41.882Z,84.70
2022-09-28T07:23:52.224Z,84.49
2022-09-28T07:24:55.124Z,85.21
2022-09-28T07:25:58.213Z,85.34
2022-09-28T07:27:00.024Z,85.22
2022-09-28T07:28:02.954Z,84.76
2022-09-28T07:29:04.900Z,85.10
2022-09-28T07:30:07.029Z,84.57
2022-09-28T07:31:09.977Z,84.07
2022-09-28T07:32:11.359Z,83.69
2022-09-28T07:33:14.396Z,83.11
2022-09-28T07:34:17.395Z,83.51
2022-09-28T07:35:18.921Z,83.23
2022-09-28T07:36:21.222Z,83.15
2022-09-28T07:37:24.179Z,83.71
2022-09-28T07:38:26.054Z,83.79
2022-09-28T07:39:27.443Z,84.77
2022-09-28T07:40:59.619Z,85.30
2022-09-28T07:42:03.015Z,84.46
2022-09-28T07:43:05.706Z,83.77
2022-09-28T07:44:07.434Z,82.11
2022-09-28T07:45:09.288Z,81.36
2022-09-28T07:46:13.712Z,81.48
2022-09-28T07:47:15.508Z,81.97
2022-09-28T07:48:18.812Z,81.98
2022-09-28T07:49:22.423Z,81.90
2022-09-28T07:50:23.906Z,81.76
2022-09-28T07:51:25.920Z,81.71
2022-09-28T07:52:28.734Z,82.00
2022-09-28T07:53:30.983Z,81.86
2022-09-28T07:54:32.364Z,80.54
2022-09-28T07:55:34.382Z,80.83
2022-09-28T07:56:36.146Z,81.53
2022-09-28T07:57:37.604Z,80.73
2022-09-28T07:58:39.583Z,80.98
2022-09-28T07:59:40.970Z,80.66
2022-09-28T08:00:42.496Z,80.66
2022-09-28T08:01:44.378Z,80.75
2022-09-28T08:02:45.894Z,80.26
2022-09-28T08:03:47.968Z,80.02
2022-09-28T08:04:50.299Z,80.28
2022-09-28T08:05:51.780Z,80.43
2022-09-28T08:06:53.609Z,80.40
2022-09-28T08:07:57.801Z,79.47
2022-09-28T08:09:00.704Z,78.54
2022-09-28T08:10:02.114Z,77.30
2022-09-28T08:11:06.822Z,77.84
2022-09-28T08:12:08.999Z,76.73
2022-09-28T08:13:10.435Z,76.92
2022-09-28T08:14:11.886Z,77.30
2022-09-28T08:15:13.327Z,78.08
2022-09-28T08:16:15.163Z,76.15
2022-09-28T08:17:16.855Z,74.55
2022-09-28T08:18:18.997Z,72.98
2022-09-28T08:19:20.399Z,71.30
2022-09-28T08:20:41.039Z,68.78
2022-09-28T08:21:45.522Z,70.13
2022-09-28T08:22:46.924Z,71.30
2022-09-28T08:23:48.376Z,71.63
2022-09-28T08:24:49.814Z,72.31
2022-09-28T08:25:54.764Z,74.55
2022-09-28T08:26:57.429Z,76.20
2022-09-28T08:27:58.983Z,76.24
2022-09-28T08:29:00.363Z,76.16
2022-09-28T08:30:01.760Z,74.84
2022-09-28T08:31:03.350Z,75.42
2022-09-28T08:32:08.187Z,75.10
2022-09-28T08:33:09.726Z,74.96
2022-09-28T08:34:11.386Z,75.81
2022-09-28T08:35:13.243Z,75.98
2022-09-28T08:36:14.687Z,75.78
2022-09-28T08:37:16.467Z,75.84
2022-09-28T08:38:18.335Z,74.57
2022-09-28T08:39:19.804Z,74.69
2022-09-28T08:40:24.830Z,74.62
2022-09-28T08:41:51.315Z,75.90
2022-09-28T08:42:58.050Z,76.45
2022-09-28T08:44:14.514Z,76.53
2022-09-28T08:45:31.515Z,75.91
2022-09-28T08:46:41.262Z,74.79
2022-09-28T08:48:08.521Z,74.97
2022-09-28T08:49:32.580Z,74.08
2022-09-28T08:50:41.637Z,74.68
2022-09-28T08:51:57.413Z,75.08
2022-09-28T08:53:05.594Z,75.24
2022-09-28T08:54:35.675Z,74.25
2022-09-28T08:55:39.592Z,74.53
2022-09-28T08:56:47.419Z,72.92
2022-09-28T08:57:53.340Z,73.65
2022-09-28T08:58:59.824Z,74.22
2022-09-28T09:00:02.558Z,72.85
2022-09-28T09:01:07.479Z,72.95
2022-09-28T09:02:18.399Z,72.76
2022-09-28T09:03:35.919Z,72.51
2022-09-28T09:04:37.556Z,70.57
2022-09-28T09:06:03.709Z,71.42
2022-09-28T09:07:43.137Z,69.69
2022-09-28T09:09:09.229Z,68.85
2022-09-28T09:10:47.014Z,66.39
2022-09-28T09:11:57.283Z,64.27
2022-09-28T09:13:19.070Z,66.92
2022-09-28T09:14:32.211Z,65.91
2022-09-28T09:15:57.529Z,65.59
2022-09-28T09:17:34.647Z,66.12
2022-09-28T09:19:00.132Z,66.36
2022-09-28T09:20:25.565Z,67.75
2022-09-28T09:21:41.961Z,69.00
2022-09-28T09:23:00.769Z,69.30
2022-09-28T09:24:27.853Z,69.95
2022-09-28T09:25:45.955Z,69.65
2022-09-28T09:26:52.856Z,69.33
2022-09-28T09:28:03.311Z,69.45
2022-09-28T09:29:19.956Z,70.05
2022-09-28T09:30:30.241Z,71.04
2022-09-28T09:31:54.771Z,71.23
2022-09-28T09:33:08.417Z,72.04
2022-09-28T09:34:19.081Z,71.88
2022-09-28T09:35:40.882Z,72.48
2022-09-28T09:37:07.885Z,71.01
2022-09-28T09:38:43.497Z,70.98
2022-09-28T09:40:07.377Z,71.10
2022-09-28T09:41:36.416Z,71.57
2022-09-28T09:43:05.763Z,71.90
2022-09-28T09:44:28.597Z,71.82
2022-09-28T09:45:43.394Z,72.24
2022-09-28T09:47:02.323Z,72.08
2022-09-28T09:48:11.127Z,71.46
2022-09-28T09:49:26.879Z,73.20
2022-09-28T09:50:39.442Z,70.62
2022-09-28T09:52:00.561Z,70.64
2022-09-28T09:53:11.896Z,69.55
2022-09-28T09:54:26.791Z,69.15
2022-09-28T09:55:37.181Z,68.87
2022-09-28T09:56:55.273Z,69.20
2022-09-28T09:58:00.085Z,68.87
2022-09-28T09:59:14.019Z,69.28
2022-09-28T10:00:16.679Z,69.40
2022-09-28T10:01:22.926Z,69.37
2022-09-28T10:02:35.422Z,69.59
2022-09-28T10:03:42.200Z,69.17
2022-09-28T10:04:46.687Z,69.40
2022-09-28T10:06:06.887Z,70.23
2022-09-28T10:07:19.096Z,70.01
2022-09-28T10:08:23.731Z,69.80
2022-09-28T10:09:34.789Z,69.04
2022-09-28T10:10:51.461Z,69.39
2022-09-28T10:11:54.358Z,70.39
2022-09-28T10:12:56.416Z,69.71
2022-09-28T10:13:58.414Z,68.72
2022-09-28T10:15:02.767Z,69.00
2022-09-28T10:16:06.161Z,68.61
2022-09-28T10:17:07.685Z,68.09
2022-09-28T10:18:15.279Z,67.51
2022-09-28T10:19:19.490Z,67.49
2022-09-28T10:20:22.981Z,67.63
2022-09-28T10:21:25.362Z,68.45
2022-09-28T10:22:28.732Z,67.39
2022-09-28T10:23:34.172Z,65.22
2022-09-28T10:24:41.335Z,61.05
2022-09-28T10:25:45.154Z,57.89
2022-09-28T10:26:50.748Z,54.96
2022-09-28T10:27:52.480Z,52.51
2022-09-28T10:29:21.311Z,50.90
2022-09-28T10:30:25.118Z,50.09
2022-09-28T10:31:36.027Z,48.82
2022-09-28T10:32:49.073Z,46.61
2022-09-28T10:33:53.350Z,45.24
2022-09-28T10:35:21.592Z,44.04
2022-09-28T10:36:26.240Z,43.12
2022-09-28T10:37:28.172Z,43.61
2022-09-28T10:38:30.876Z,45.07
2022-09-28T10:39:36.893Z,45.53
2022-09-28T10:40:51.605Z,47.31
2022-09-28T10:41:54.290Z,48.33
2022-09-28T10:43:05.182Z,48.85
2022-09-28T10:44:06.977Z,48.62
2022-09-28T10:45:31.604Z,50.51
2022-09-28T10:46:37.579Z,50.84
2022-09-28T10:47:44.753Z,52.85
2022-09-28T10:48:56.416Z,53.29
2022-09-28T10:49:59.115Z,53.48
2022-09-28T10:51:05.712Z,54.24
2022-09-28T10:52:31.793Z,54.40
2022-09-28T10:53:37.221Z,55.58
2022-09-28T10:54:52.992Z,56.29
2022-09-28T10:56:03.910Z,56.33
2022-09-28T10:57:27.329Z,57.59
2022-09-28T10:58:40.661Z,57.97
2022-09-28T10:59:42.310Z,58.46
2022-09-28T11:00:44.979Z,58.66
2022-09-28T11:01:46.977Z,57.81
2022-09-28T11:02:48.610Z,58.64
2022-09-28T11:04:03.564Z,59.03
2022-09-28T11:05:07.267Z,59.28
2022-09-28T11:06:09.122Z,59.53
2022-09-28T11:07:32.617Z,60.30
2022-09-28T11:08:45.755Z,59.74
2022-09-28T11:09:49.488Z,60.53
2022-09-28T11:11:08.851Z,59.09
2022-09-28T11:12:15.949Z,59.17
2022-09-28T11:13:17.377Z,57.16
2022-09-28T11:14:30.110Z,55.17
2022-09-28T11:15:33.352Z,54.25
2022-09-28T11:16:38.820Z,54.87
2022-09-28T11:17:44.457Z,54.82
2022-09-28T11:18:45.893Z,55.90
2022-09-28T11:19:47.335Z,56.04
2022-09-28T11:20:49.529Z,54.21
2022-09-28T11:21:51.383Z,55.72
2022-09-28T11:22:55.679Z,56.51
2022-09-28T11:24:07.018Z,56.19
2022-09-28T11:25:17.446Z,56.33
2022-09-28T11:26:19.137Z,55.10
2022-09-28T11:27:26.090Z,54.39
2022-09-28T11:28:35.925Z,55.39
2022-09-28T11:29:41.754Z,55.10
2022-09-28T11:30:58.024Z,54.03
2022-09-28T11:32:03.302Z,54.54
2022-09-28T11:33:15.083Z,53.85
2022-09-28T11:34:36.532Z,54.10
2022-09-28T11:36:05.101Z,54.36
2022-09-28T11:37:31.590Z,54.69
2022-09-28T11:38:39.584Z,54.90
2022-09-28T11:39:43.904Z,56.07
2022-09-28T11:41:20.578Z,55.81
2022-09-28T11:42:28.352Z,56.53
2022-09-28T11:43:55.841Z,56.25
2022-09-28T11:45:03.408Z,56.35
2022-09-28T11:46:19.721Z,54.14
2022-09-28T11:47:32.032Z,54.25
2022-09-28T11:48:44.060Z,54.80
2022-09-28T11:49:52.405Z,54.72
2022-09-28T11:51:03.818Z,54.86
2022-09-28T11:52:23.130Z,54.84
2022-09-28T11:53:34.673Z,55.63
2022-09-28T11:54:44.383Z,55.03
2022-09-28T11:56:07.924Z,54.38
2022-09-28T11:57:20.899Z,55.64
2022-09-28T11:58:37.636Z,57.41
2022-09-28T11:59:52.362Z,56.77
2022-09-28T12:01:18.595Z,55.56
2022-09-28T12:02:30.187Z,56.90
2022-09-28T12:03:42.658Z,55.29
2022-09-28T12:04:52.168Z,54.80
2022-09-28T12:06:01.124Z,55.00
2022-09-28T12:07:23.709Z,54.02
2022-09-28T12:08:30.230Z,54.05
2022-09-28T12:09:40.443Z,51.10
2022-09-28T12:10:57.209Z,51.46
2022-09-28T12:12:02.774Z,51.97
2022-09-28T12:13:11.978Z,50.76
2022-09-28T12:14:21.652Z,50.83
2022-09-28T12:15:38.187Z,50.80
2022-09-28T12:17:08.254Z,52.97
2022-09-28T12:18:32.967Z,53.80
2022-09-28T12:20:00.179Z,54.17
2022-09-28T12:21:21.789Z,53.54
2022-09-28T12:22:30.173Z,55.33
2022-09-28T12:23:35.748Z,54.70
2022-09-28T12:24:42.444Z,53.67
2022-09-28T12:26:21.124Z,53.08
2022-09-28T12:27:25.544Z,52.30
2022-09-28T12:28:37.217Z,52.43
2022-09-28T12:29:41.635Z,53.15
2022-09-28T12:30:45.985Z,52.19
2022-09-28T12:31:58.294Z,52.60
2022-09-28T12:33:12.485Z,52.44
2022-09-28T12:34:13.974Z,52.15
2022-09-28T12:35:50.894Z,53.05
2022-09-28T12:36:55.108Z,53.62
2022-09-28T12:38:09.161Z,51.38
2022-09-28T12:39:31.043Z,52.54
2022-09-28T12:40:58.611Z,52.80
2022-09-28T12:42:12.931Z,53.77
2022-09-28T12:43:33.703Z,52.15
2022-09-28T12:44:59.830Z,51.73
2022-09-28T12:46:22.382Z,51.86
2022-09-28T12:47:57.511Z,52.62
2022-09-28T12:51:29.589Z,52.21
2022-09-28T12:53:03.161Z,52.16
2022-09-28T12:54:25.412Z,53.09
2022-09-28T12:55:56.462Z,52.91
2022-09-28T12:57:30.098Z,52.41
2022-09-28T12:59:01.098Z,52.18
2022-09-28T13:00:08.846Z,51.41
2022-09-28T13:01:23.169Z,51.97
2022-09-28T13:02:41.990Z,51.99
2022-09-28T13:04:04.850Z,52.13
2022-09-28T13:05:12.270Z,50.36
2022-09-28T13:06:19.626Z,51.25
2022-09-28T13:07:33.350Z,51.87
2022-09-28T13:08:40.838Z,51.32
2022-09-28T13:09:49.684Z,50.93
2022-09-28T13:11:09.856Z,51.16
2022-09-28T13:12:20.890Z,50.14
2022-09-28T13:14:06.298Z,50.04
2022-09-28T13:15:27.814Z,49.45
2022-09-28T13:16:46.019Z,48.37
2022-09-28T13:18:12.934Z,46.17
2022-09-28T13:19:25.398Z,44.53
2022-09-28T13:20:35.853Z,45.27
2022-09-28T13:22:03.779Z,46.28
2022-09-28T13:23:16.118Z,47.01
2022-09-28T13:24:32.619Z,47.77
2022-09-28T13:25:40.273Z,46.53
2022-09-28T13:26:45.596Z,47.81
2022-09-28T13:28:03.569Z,48.47
2022-09-28T13:29:11.716Z,48.60
2022-09-28T13:30:15.277Z,47.66
2022-09-28T13:31:24.374Z,47.79
2022-09-28T13:32:29.920Z,47.84
2022-09-28T13:33:39.050Z,48.00
2022-09-28T13:34:40.642Z,48.33
2022-09-28T13:35:44.003Z,46.11
2022-09-28T13:36:48.149Z,45.48
2022-09-28T13:38:16.583Z,43.95
2022-09-28T13:39:44.120Z,45.88
2022-09-28T13:41:06.148Z,45.76
2022-09-28T13:42:09.592Z,46.27
2022-09-28T13:43:29.976Z,47.15
2022-09-28T13:45:05.288Z,43.23
2022-09-28T13:46:20.716Z,44.58
2022-09-28T13:47:42.146Z,45.80
2022-09-28T13:48:59.123Z,45.35
2022-09-28T13:50:17.777Z,46.09
2022-09-28T13:51:38.124Z,45.58
2022-09-28T13:52:55.207Z,45.29
2022-09-28T13:53:56.933Z,44.81
2022-09-28T13:55:12.492Z,45.97
2022-09-28T13:56:21.225Z,45.99
2022-09-28T13:57:31.867Z,43.84
2022-09-28T13:58:58.470Z,43.13
2022-09-28T14:00:29.005Z,44.94
2022-09-28T14:01:37.710Z,44.93
2022-09-28T14:02:48.005Z,42.84
2022-09-28T14:04:11.805Z,42.89
2022-09-28T14:05:53.352Z,43.25
2022-09-28T14:06:59.664Z,43.39
2022-09-28T14:08:33.985Z,42.87
2022-09-28T14:10:07.828Z,43.52
2022-09-28T14:11:27.453Z,43.90
2022-09-28T14:12:35.060Z,43.36
2022-09-28T14:13:42.963Z,43.33
2022-09-28T14:14:51.021Z,43.16
2022-09-28T14:15:52.529Z,43.79
2022-09-28T14:17:19.939Z,44.81
2022-09-28T14:18:29.688Z,44.24
2022-09-28T14:19:34.038Z,43.80
2022-09-28T14:20:36.828Z,43.36
2022-09-28T14:22:10.131Z,41.81
2022-09-28T14:23:43.806Z,43.13
2022-09-28T14:25:23.702Z,42.98
2022-09-28T14:26:41.713Z,43.99
2022-09-28T14:28:07.713Z,44.03
2022-09-28T14:29:20.690Z,44.76
2022-09-28T14:30:26.115Z,43.83
2022-09-28T14:31:29.404Z,44.78
2022-09-28T14:32:37.431Z,44.19
2022-09-28T14:33:43.106Z,45.75
2022-09-28T14:34:56.503Z,45.72
2022-09-28T14:36:02.151Z,45.66
2022-09-28T14:37:36.564Z,45.64
2022-09-28T14:39:07.593Z,45.81
2022-09-28T14:40:55.063Z,46.08
2022-09-28T14:41:56.632Z,47.50
2022-09-28T14:43:24.404Z,45.21
2022-09-28T14:44:25.879Z,45.65
2022-09-28T14:45:36.285Z,46.54